createdAt,value
2018-04-08T00:01:28.751Z,53.30
2018-04-08T00:03:56.872Z,52.84
2018-04-08T00:06:24.992Z,52.70
2018-04-08T00:08:53.144Z,52.12
2018-04-08T00:11:21.327Z,51.97
2018-04-08T00:13:49.455Z,51.86
2018-04-08T00:16:17.560Z,51.70
2018-04-08T00:18:45.673Z,51.83
2018-04-08T00:21:13.805Z,51.15
2018-04-08T00:23:41.922Z,51.08
2018-04-08T00:26:10.063Z,51.41
2018-04-08T00:28:38.205Z,51.39
2018-04-08T00:31:06.331Z,51.53
2018-04-08T00:33:34.454Z,51.64
2018-04-08T00:36:02.573Z,51.99
2018-04-08T00:38:30.697Z,52.32
2018-04-08T00:40:58.845Z,52.74
2018-04-08T00:43:26.963Z,52.79
2018-04-08T00:45:55.095Z,52.97
2018-04-08T00:48:23.222Z,53.03
2018-04-08T00:50:51.338Z,53.16
2018-04-08T00:53:19.457Z,53.03
2018-04-08T00:55:47.585Z,52.63
2018-04-08T00:58:15.728Z,53.34
2018-04-08T01:00:43.837Z,53.36
2018-04-08T01:03:11.958Z,53.91
2018-04-08T01:05:40.088Z,53.77
2018-04-08T01:08:08.214Z,54.32
2018-04-08T01:10:36.324Z,54.54
2018-04-08T01:13:04.464Z,55.00
2018-04-08T01:15:32.563Z,54.82
2018-04-08T01:18:00.690Z,55.02
2018-04-08T01:20:28.793Z,55.08
2018-04-08T01:22:56.959Z,55.42
2018-04-08T01:25:25.080Z,55.84
2018-04-08T01:27:53.200Z,55.61
2018-04-08T01:30:21.328Z,55.58
2018-04-08T01:32:49.451Z,55.32
2018-04-08T01:35:17.593Z,55.33
2018-04-08T01:37:45.714Z,55.52
2018-04-08T01:40:13.834Z,55.46
2018-04-08T01:42:41.968Z,55.91
2018-04-08T01:45:10.076Z,56.37
2018-04-08T01:47:38.220Z,56.32
2018-04-08T01:50:06.354Z,56.80
2018-04-08T01:52:34.479Z,57.01
2018-04-08T01:55:02.621Z,56.74
2018-04-08T01:57:30.751Z,57.41
2018-04-08T01:59:58.877Z,56.99
2018-04-08T02:02:26.998Z,56.63
2018-04-08T02:04:55.125Z,56.30
2018-04-08T02:07:23.259Z,55.70
2018-04-08T02:09:51.402Z,55.90
2018-04-08T02:12:19.544Z,56.26
2018-04-08T02:14:47.662Z,57.28
2018-04-08T02:17:15.781Z,57.15
2018-04-08T02:19:43.931Z,57.16
2018-04-08T02:22:12.055Z,57.68
2018-04-08T02:24:40.212Z,57.61
2018-04-08T02:27:08.338Z,57.21
2018-04-08T02:29:36.456Z,56.49
2018-04-08T02:32:04.577Z,55.85
2018-04-08T02:34:32.720Z,56.06
2018-04-08T02:37:00.848Z,56.45
2018-04-08T02:39:28.961Z,56.08
2018-04-08T02:41:57.065Z,56.25
2018-04-08T02:44:25.204Z,56.11
2018-04-08T02:46:53.337Z,55.54
2018-04-08T02:49:21.450Z,55.42
2018-04-08T02:51:49.630Z,55.38
2018-04-08T02:54:17.765Z,54.82
2018-04-08T02:56:45.909Z,54.65
2018-04-08T02:59:14.134Z,54.99
2018-04-08T03:01:42.273Z,54.86
2018-04-08T03:04:10.396Z,54.69
2018-04-08T03:06:38.541Z,54.83
2018-04-08T03:09:06.667Z,55.01
2018-04-08T03:11:35.147Z,54.78
2018-04-08T03:14:03.275Z,54.42
2018-04-08T03:16:31.385Z,54.45
2018-04-08T03:18:59.510Z,54.11
2018-04-08T03:21:27.652Z,53.85
2018-04-08T03:23:55.793Z,53.28
2018-04-08T03:26:23.945Z,54.01
2018-04-08T03:28:52.078Z,53.79
2018-04-08T03:31:20.194Z,53.84
2018-04-08T03:33:48.300Z,53.76
2018-04-08T03:36:16.427Z,53.97
2018-04-08T03:38:44.569Z,53.55
2018-04-08T03:41:12.691Z,53.60
2018-04-08T03:43:40.818Z,53.32
2018-04-08T03:46:09.257Z,53.14
2018-04-08T03:48:37.373Z,53.06
2018-04-08T03:51:05.579Z,53.25
2018-04-08T03:53:33.693Z,52.71
2018-04-08T03:56:01.801Z,52.52
2018-04-08T03:58:29.939Z,52.26
2018-04-08T04:00:58.084Z,52.45
2018-04-08T04:03:26.218Z,52.30
2018-04-08T04:05:54.357Z,52.17
2018-04-08T04:08:22.469Z,52.48
2018-04-08T04:10:51.209Z,52.21
2018-04-08T04:13:19.331Z,52.04
2018-04-08T04:15:47.479Z,51.94
2018-04-08T04:21:31.400Z,51.93
2018-04-08T04:24:11.477Z,52.03
2018-04-08T04:26:39.692Z,51.81
2018-04-08T04:29:07.823Z,51.44
2018-04-08T04:31:36.230Z,51.72
2018-04-08T04:34:04.363Z,52.56
2018-04-08T04:36:32.486Z,53.05
2018-04-08T04:39:00.600Z,53.37
2018-04-08T04:41:28.983Z,53.73
2018-04-08T04:43:57.087Z,54.01
2018-04-08T04:46:25.222Z,54.03
2018-04-08T04:48:53.369Z,53.94
2018-04-08T04:51:21.495Z,54.40
2018-04-08T04:53:49.629Z,54.59
2018-04-08T04:56:17.739Z,54.61
2018-04-08T04:58:45.867Z,55.06
2018-04-08T05:01:14.002Z,55.41
2018-04-08T05:03:42.130Z,55.58
2018-04-08T05:06:10.265Z,55.90
2018-04-08T05:08:38.376Z,55.73
2018-04-08T05:11:06.500Z,56.34
2018-04-08T05:13:34.679Z,56.32
2018-04-08T05:16:02.803Z,56.41
2018-04-08T05:18:30.936Z,56.39
2018-04-08T05:20:59.057Z,56.27
2018-04-08T05:23:27.197Z,56.34
2018-04-08T05:25:55.334Z,56.05
2018-04-08T05:28:23.461Z,55.89
2018-04-08T05:30:51.610Z,55.94
2018-04-08T05:33:19.783Z,56.34
2018-04-08T05:35:47.973Z,56.56
2018-04-08T05:38:16.092Z,56.57
2018-04-08T05:40:44.219Z,56.41
2018-04-08T05:43:12.373Z,56.56
2018-04-08T05:45:40.503Z,56.09
2018-04-08T05:48:08.640Z,56.03
2018-04-08T05:50:36.784Z,55.61
2018-04-08T05:53:04.899Z,55.95
2018-04-08T05:55:33.059Z,55.94
2018-04-08T05:58:01.190Z,56.04
2018-04-08T06:00:29.304Z,55.79
2018-04-08T06:02:57.452Z,56.21
2018-04-08T06:05:25.570Z,55.94
2018-04-08T06:07:53.711Z,54.94
2018-04-08T06:10:21.838Z,54.95
2018-04-08T06:12:49.972Z,54.79
2018-04-08T06:15:18.101Z,54.40
2018-04-08T06:17:46.215Z,54.00
2018-04-08T06:20:17.848Z,53.08
2018-04-08T06:22:45.985Z,53.12
2018-04-08T06:25:14.114Z,52.27
2018-04-08T06:27:42.256Z,52.33
2018-04-08T06:30:10.373Z,52.65
2018-04-08T06:32:38.502Z,52.81
2018-04-08T06:35:06.670Z,52.47
2018-04-08T06:37:34.819Z,52.30
2018-04-08T06:40:02.976Z,52.19
2018-04-08T06:42:31.093Z,52.29
2018-04-08T06:44:59.227Z,52.20
2018-04-08T06:47:27.364Z,51.68
2018-04-08T06:49:55.479Z,51.83
2018-04-08T06:52:23.611Z,50.97
2018-04-08T06:54:51.740Z,50.38
2018-04-08T06:57:19.899Z,50.23
2018-04-08T06:59:48.031Z,50.15
2018-04-08T07:02:16.353Z,50.03
2018-04-08T07:04:44.859Z,49.55
2018-04-08T07:07:12.979Z,49.59
2018-04-08T07:09:41.129Z,49.36
2018-04-08T07:12:09.236Z,49.65
2018-04-08T07:14:37.374Z,49.63
2018-04-08T07:17:05.518Z,48.21
2018-04-08T07:19:33.655Z,48.44
2018-04-08T07:22:01.883Z,48.26
2018-04-08T07:24:30.002Z,47.89
2018-04-08T07:26:58.138Z,46.74
2018-04-08T07:29:26.264Z,46.76
2018-04-08T07:31:54.390Z,45.63
2018-04-08T07:34:22.530Z,46.55
2018-04-08T07:36:50.651Z,46.44
2018-04-08T07:39:18.818Z,45.62
2018-04-08T07:41:46.952Z,44.82
2018-04-08T07:44:15.780Z,44.81
2018-04-08T07:46:43.925Z,44.41
2018-04-08T07:49:12.220Z,43.39
2018-04-08T07:51:40.328Z,43.07
2018-04-08T07:54:08.468Z,42.32
2018-04-08T07:56:36.594Z,43.05
2018-04-08T07:59:04.747Z,43.09
2018-04-08T08:01:32.880Z,42.39
2018-04-08T08:04:01.057Z,42.41
2018-04-08T08:06:29.202Z,41.66
2018-04-08T08:08:57.315Z,41.71
2018-04-08T08:11:25.513Z,42.29
2018-04-08T08:13:53.647Z,41.72
2018-04-08T08:16:21.783Z,41.40
2018-04-08T08:18:49.901Z,41.33
2018-04-08T08:21:18.044Z,40.80
2018-04-08T08:23:46.191Z,41.02
2018-04-08T08:26:14.351Z,41.80
2018-04-08T08:28:43.014Z,41.62
2018-04-08T08:31:11.175Z,41.72
2018-04-08T08:33:43.314Z,42.22
2018-04-08T08:36:11.490Z,41.39
2018-04-08T08:38:39.638Z,41.60
2018-04-08T08:41:07.973Z,42.41
2018-04-08T08:43:36.104Z,42.44
2018-04-08T08:46:04.238Z,42.86
2018-04-08T08:48:32.367Z,43.50
2018-04-08T08:51:00.510Z,43.06
2018-04-08T08:53:32.280Z,43.29
2018-04-08T08:56:00.430Z,43.18
2018-04-08T08:58:28.561Z,43.17
2018-04-08T09:00:56.890Z,43.70
2018-04-08T09:03:25.010Z,42.93
2018-04-08T09:05:53.147Z,42.89
2018-04-08T09:08:21.312Z,41.86
2018-04-08T09:10:49.460Z,42.01
2018-04-08T09:13:17.621Z,40.98
2018-04-08T09:15:45.764Z,41.16
2018-04-08T09:18:13.911Z,41.62
2018-04-08T09:23:52.190Z,40.48
2018-04-08T09:26:20.352Z,40.74
2018-04-08T09:28:48.490Z,40.61
2018-04-08T09:31:16.598Z,39.79
2018-04-08T09:33:44.798Z,40.26
2018-04-08T09:36:12.956Z,39.62
2018-04-08T09:38:41.062Z,39.35
2018-04-08T09:41:09.219Z,39.41
2018-04-08T09:43:37.357Z,39.21
2018-04-08T09:46:05.506Z,38.47
2018-04-08T09:48:33.615Z,38.07
2018-04-08T09:51:01.741Z,37.74
2018-04-08T09:53:29.895Z,37.80
2018-04-08T09:55:58.297Z,37.99
2018-04-08T09:58:26.448Z,38.62
2018-04-08T10:01:09.212Z,38.41
2018-04-08T10:03:46.389Z,38.49
2018-04-08T10:06:14.533Z,37.92
2018-04-08T10:08:42.661Z,38.46
2018-04-08T10:11:10.804Z,38.82
2018-04-08T10:13:38.926Z,38.11
2018-04-08T10:16:07.417Z,37.74
2018-04-08T10:18:35.541Z,38.29
2018-04-08T10:21:03.658Z,38.19
2018-04-08T10:23:31.820Z,38.13
2018-04-08T10:25:59.948Z,38.11
2018-04-08T10:28:28.083Z,37.71
2018-04-08T10:30:56.214Z,38.10
2018-04-08T10:33:24.352Z,38.17
2018-04-08T10:35:52.529Z,38.17
2018-04-08T10:38:20.693Z,38.73
2018-04-08T10:40:48.927Z,38.35
2018-04-08T10:43:17.075Z,39.97
2018-04-08T10:45:45.208Z,39.04
2018-04-08T10:48:13.371Z,38.52
2018-04-08T10:50:41.516Z,38.91
2018-04-08T10:53:09.672Z,39.62
2018-04-08T10:55:37.837Z,37.31
2018-04-08T10:58:05.982Z,36.77
2018-04-08T11:00:34.160Z,37.02
2018-04-08T11:03:02.304Z,36.78
2018-04-08T11:05:30.432Z,37.01
2018-04-08T11:07:58.576Z,36.00
2018-04-08T11:10:26.730Z,37.02
2018-04-08T11:12:54.885Z,36.65
2018-04-08T11:15:22.997Z,36.24
2018-04-08T11:17:51.153Z,38.90
2018-04-08T11:20:19.292Z,39.73
2018-04-08T11:22:47.423Z,36.35
2018-04-08T11:25:15.577Z,37.36
2018-04-08T11:27:43.693Z,37.15
2018-04-08T11:30:11.856Z,36.87
2018-04-08T11:32:39.981Z,35.59
2018-04-08T11:35:08.112Z,35.30
2018-04-08T11:37:36.306Z,36.41
2018-04-08T11:40:04.427Z,35.62
2018-04-08T11:42:32.594Z,34.71
2018-04-08T11:45:00.749Z,35.57
2018-04-08T11:47:28.897Z,34.85
2018-04-08T11:49:57.040Z,34.87
2018-04-08T11:52:25.220Z,34.70
2018-04-08T11:54:53.325Z,34.12
2018-04-08T11:57:21.488Z,34.21
2018-04-08T11:59:49.616Z,34.84
2018-04-08T12:02:17.784Z,34.75
2018-04-08T12:04:45.936Z,34.11
2018-04-08T12:07:14.088Z,34.52
2018-04-08T12:09:42.223Z,34.48
2018-04-08T12:12:13.841Z,34.38
2018-04-08T12:14:41.974Z,33.46
2018-04-08T12:17:10.112Z,33.41
2018-04-08T12:19:38.269Z,33.88
2018-04-08T12:22:06.474Z,34.60
2018-04-08T12:24:34.591Z,34.38
2018-04-08T12:27:15.598Z,33.78
2018-04-08T12:29:43.728Z,33.15
2018-04-08T12:32:11.873Z,32.79
2018-04-08T12:34:43.437Z,33.52
2018-04-08T12:37:11.587Z,33.61
2018-04-08T12:39:39.736Z,33.25
2018-04-08T12:42:07.882Z,32.86
2018-04-08T12:44:36.037Z,33.15
2018-04-08T12:47:04.149Z,34.01
2018-04-08T12:49:32.291Z,33.49
2018-04-08T12:52:00.459Z,33.77
2018-04-08T12:54:28.566Z,33.19
2018-04-08T12:56:56.712Z,31.75
2018-04-08T12:59:24.839Z,31.62
2018-04-08T13:01:52.948Z,32.45
2018-04-08T13:04:21.083Z,30.87
2018-04-08T13:06:49.257Z,30.78
2018-04-08T13:09:17.394Z,31.01
2018-04-08T13:11:45.541Z,31.31
2018-04-08T13:14:13.712Z,30.85
2018-04-08T13:16:41.806Z,30.97
2018-04-08T13:19:09.953Z,31.46
2018-04-08T13:21:38.109Z,30.24
2018-04-08T13:24:06.230Z,30.33
2018-04-08T13:26:34.374Z,30.20
2018-04-08T13:29:02.503Z,30.81
2018-04-08T13:31:30.822Z,30.96
2018-04-08T13:33:59.187Z,30.81
2018-04-08T13:36:27.331Z,31.76
2018-04-08T13:38:55.459Z,31.42
2018-04-08T13:41:23.703Z,31.71
2018-04-08T13:43:51.838Z,31.74
2018-04-08T13:46:19.973Z,31.95
2018-04-08T13:48:48.127Z,32.30
2018-04-08T13:51:16.251Z,31.50
2018-04-08T13:53:44.412Z,31.75
2018-04-08T13:56:12.566Z,30.96
2018-04-08T13:58:40.693Z,31.36
2018-04-08T14:01:08.819Z,30.33
2018-04-08T14:03:36.946Z,30.69
2018-04-08T14:06:05.093Z,30.80
2018-04-08T14:08:33.227Z,30.73
2018-04-08T14:11:01.348Z,30.59
2018-04-08T14:13:29.486Z,30.50
2018-04-08T14:15:57.637Z,30.69
2018-04-08T14:18:25.788Z,30.74
2018-04-08T14:20:53.919Z,30.03
2018-04-08T14:23:22.073Z,30.40
2018-04-08T14:25:50.206Z,30.53
2018-04-08T14:28:18.363Z,30.37
2018-04-08T14:30:46.495Z,30.21
2018-04-08T14:33:14.639Z,30.37
2018-04-08T14:35:42.785Z,31.16
2018-04-08T14:38:10.930Z,30.86
2018-04-08T14:40:39.057Z,30.13
2018-04-08T14:43:07.190Z,30.43
2018-04-08T14:45:35.317Z,30.57
2018-04-08T14:48:03.437Z,30.38
2018-04-08T14:50:31.574Z,30.07
2018-04-08T14:52:59.743Z,30.38
2018-04-08T14:55:27.956Z,30.13
2018-04-08T14:57:56.077Z,30.03
2018-04-08T15:00:24.203Z,30.40
2018-04-08T15:02:52.332Z,30.76
2018-04-08T15:05:20.462Z,30.38
2018-04-08T15:07:48.611Z,29.81
2018-04-08T15:10:16.722Z,30.03
2018-04-08T15:12:44.881Z,30.40
2018-04-08T15:15:13.103Z,30.35
2018-04-08T15:17:41.213Z,29.84
2018-04-08T15:20:09.698Z,29.86
2018-04-08T15:22:37.843Z,30.29
2018-04-08T15:25:06.049Z,30.73
2018-04-08T15:27:34.188Z,30.94
2018-04-08T15:30:02.331Z,30.56
2018-04-08T15:32:30.462Z,30.12
2018-04-08T15:34:58.591Z,28.80
2018-04-08T15:37:26.723Z,29.38
2018-04-08T15:39:54.868Z,29.33
2018-04-08T15:42:23.019Z,29.34
2018-04-08T15:44:51.129Z,29.37
2018-04-08T15:47:19.258Z,29.23
2018-04-08T15:49:47.400Z,29.26
2018-04-08T15:52:15.539Z,29.44
2018-04-08T15:54:43.691Z,29.01
2018-04-08T15:57:11.804Z,29.17
2018-04-08T15:59:39.937Z,29.56
2018-04-08T16:02:08.098Z,29.23
2018-04-08T16:04:36.221Z,29.82
2018-04-08T16:07:04.362Z,29.45
2018-04-08T16:09:32.492Z,29.46
2018-04-08T16:12:00.634Z,30.04
2018-04-08T16:14:28.764Z,30.13
2018-04-08T16:16:56.921Z,29.95
2018-04-08T16:19:25.056Z,29.62
2018-04-08T16:21:53.189Z,29.46
2018-04-08T16:24:21.400Z,29.97
2018-04-08T16:26:49.523Z,30.61
2018-04-08T16:29:17.651Z,30.49
2018-04-08T16:31:45.790Z,30.40
2018-04-08T16:34:13.962Z,30.29
2018-04-08T16:36:42.149Z,30.11
2018-04-08T16:39:10.248Z,30.58
2018-04-08T16:41:38.376Z,30.64
2018-04-08T16:44:06.507Z,30.31
2018-04-08T16:46:34.652Z,30.09
2018-04-08T16:49:02.781Z,30.32
2018-04-08T16:51:31.013Z,30.77
2018-04-08T16:53:59.142Z,30.03
2018-04-08T16:56:27.286Z,30.47
2018-04-08T16:58:55.484Z,31.54
2018-04-08T17:01:23.571Z,30.71
2018-04-08T17:03:51.710Z,30.88
2018-04-08T17:06:19.874Z,30.37
2018-04-08T17:08:48.023Z,30.45
2018-04-08T17:11:16.153Z,30.50
2018-04-08T17:13:44.372Z,30.31
2018-04-08T17:16:12.450Z,30.20
2018-04-08T17:18:40.559Z,30.63
2018-04-08T17:21:11.726Z,30.61
2018-04-08T17:23:39.868Z,31.46
2018-04-08T17:26:07.991Z,30.59
2018-04-08T17:28:36.127Z,30.91
2018-04-08T17:31:07.791Z,31.52
2018-04-08T17:33:35.918Z,31.62
2018-04-08T17:36:04.058Z,31.72
2018-04-08T17:38:32.197Z,32.08
2018-04-08T17:41:00.335Z,31.92
2018-04-08T17:43:28.615Z,32.15
2018-04-08T17:45:56.767Z,32.94
2018-04-08T17:48:24.903Z,34.83
2018-04-08T17:50:53.091Z,34.46
2018-04-08T17:53:21.213Z,35.90
2018-04-08T17:55:49.368Z,36.71
2018-04-08T17:58:17.508Z,36.53
2018-04-08T18:00:45.643Z,37.21
2018-04-08T18:03:13.784Z,37.20
2018-04-08T18:05:41.923Z,37.84
2018-04-08T18:08:10.046Z,38.59
2018-04-08T18:10:38.162Z,39.19
2018-04-08T18:13:06.295Z,38.98
2018-04-08T18:15:34.432Z,39.97
2018-04-08T18:18:02.595Z,39.87
2018-04-08T18:20:30.682Z,39.34
2018-04-08T18:22:58.824Z,39.63
2018-04-08T18:25:26.960Z,40.15
2018-04-08T18:27:55.110Z,39.93
2018-04-08T18:30:23.236Z,39.97
2018-04-08T18:32:51.375Z,40.78
2018-04-08T18:35:19.522Z,41.42
2018-04-08T18:37:47.625Z,41.56
2018-04-08T18:40:15.748Z,41.46
2018-04-08T18:42:43.868Z,42.56
2018-04-08T18:45:11.997Z,42.95
2018-04-08T18:47:40.130Z,43.84
2018-04-08T18:50:08.247Z,43.74
2018-04-08T18:52:36.405Z,44.58
2018-04-08T18:55:08.256Z,45.18
2018-04-08T18:57:36.707Z,44.72
2018-04-08T19:00:05.000Z,44.89
2018-04-08T19:02:33.403Z,44.38
2018-04-08T19:05:01.583Z,44.53
2018-04-08T19:07:29.703Z,44.29
2018-04-08T19:09:57.835Z,45.28
2018-04-08T19:12:25.974Z,45.83
2018-04-08T19:14:59.651Z,45.63
2018-04-08T19:17:33.620Z,45.07
2018-04-08T19:20:01.761Z,45.79
2018-04-08T19:22:29.921Z,45.79
2018-04-08T19:24:58.042Z,46.03
2018-04-08T19:27:34.883Z,45.93
2018-04-08T19:30:03.022Z,46.09
2018-04-08T19:32:31.164Z,46.39
2018-04-08T19:34:59.291Z,53.47
2018-04-08T19:37:27.407Z,51.91
2018-04-08T19:39:55.557Z,51.63
2018-04-08T19:42:23.668Z,51.59
2018-04-08T19:44:52.654Z,47.67
2018-04-08T19:47:21.025Z,47.24
2018-04-08T19:49:49.156Z,48.19
2018-04-08T19:52:17.310Z,48.22
2018-04-08T19:54:48.498Z,48.37
2018-04-08T19:57:16.630Z,48.25
2018-04-08T19:59:48.118Z,48.20
2018-04-08T20:02:16.240Z,48.77
2018-04-08T20:04:44.364Z,49.11
2018-04-08T20:07:12.483Z,49.26
2018-04-08T20:09:40.611Z,49.44
2018-04-08T20:12:08.770Z,49.44
2018-04-08T20:14:36.884Z,49.60
2018-04-08T20:17:05.032Z,49.57
2018-04-08T20:19:33.173Z,50.37
2018-04-08T20:22:01.298Z,50.76
2018-04-08T20:24:29.436Z,51.03
2018-04-08T20:26:57.588Z,50.27
2018-04-08T20:29:25.766Z,50.42
2018-04-08T20:31:57.145Z,50.83
2018-04-08T20:34:25.273Z,50.85
2018-04-08T20:36:53.410Z,52.02
2018-04-08T20:39:21.566Z,52.20
2018-04-08T20:41:49.698Z,51.85
2018-04-08T20:44:17.830Z,52.12
2018-04-08T20:46:45.949Z,52.08
2018-04-08T20:49:14.112Z,52.61
2018-04-08T20:51:42.230Z,52.21
2018-04-08T20:54:10.410Z,52.10
2018-04-08T20:56:38.533Z,52.39
2018-04-08T20:59:06.677Z,52.70
2018-04-08T21:01:35.145Z,52.97
2018-04-08T21:04:03.276Z,53.07
2018-04-08T21:06:31.447Z,52.64
2018-04-08T21:08:59.586Z,53.14
2018-04-08T21:11:27.756Z,52.84
2018-04-08T21:13:55.901Z,53.33
2018-04-08T21:16:24.029Z,53.65
2018-04-08T21:18:52.163Z,53.92
2018-04-08T21:21:20.292Z,53.89
2018-04-08T21:23:48.513Z,53.16
2018-04-08T21:26:16.635Z,53.61
2018-04-08T21:28:44.775Z,53.72
2018-04-08T21:31:12.940Z,54.02
2018-04-08T21:33:41.167Z,54.17
2018-04-08T21:36:09.305Z,54.90
2018-04-08T21:38:37.446Z,54.63
2018-04-08T21:41:05.588Z,54.73
2018-04-08T21:43:33.768Z,54.37
2018-04-08T21:46:01.874Z,54.63
2018-04-08T21:48:30.008Z,55.07
2018-04-08T21:50:58.143Z,55.31
2018-04-08T21:53:26.260Z,55.74
2018-04-08T21:55:54.554Z,55.72
2018-04-08T21:58:22.714Z,55.76
2018-04-08T22:00:50.804Z,56.07
2018-04-08T22:03:18.962Z,56.41
2018-04-08T22:05:47.066Z,56.47
2018-04-08T22:08:15.206Z,56.43
2018-04-08T22:10:43.355Z,56.66
2018-04-08T22:13:11.473Z,56.54
2018-04-08T22:15:39.612Z,56.80
2018-04-08T22:18:07.750Z,56.62
2018-04-08T22:20:35.869Z,56.45
2018-04-08T22:23:03.981Z,57.12
2018-04-08T22:25:32.197Z,57.08
2018-04-08T22:28:00.379Z,57.22
2018-04-08T22:30:29.285Z,57.49
2018-04-08T22:32:57.427Z,57.69
2018-04-08T22:35:25.580Z,57.82
2018-04-08T22:37:53.736Z,57.80
2018-04-08T22:40:21.890Z,58.15
2018-04-08T22:42:50.001Z,58.17
2018-04-08T22:45:18.152Z,58.20
2018-04-08T22:47:46.481Z,58.20
2018-04-08T22:50:14.612Z,58.05
2018-04-08T22:52:42.758Z,58.11
2018-04-08T22:55:10.896Z,58.77
2018-04-08T22:57:39.047Z,58.23
2018-04-08T23:00:07.247Z,58.09
2018-04-08T23:02:35.382Z,58.42
2018-04-08T23:05:03.518Z,58.83
2018-04-08T23:07:31.658Z,58.83
2018-04-08T23:09:59.777Z,58.87
2018-04-08T23:12:27.888Z,59.10
2018-04-08T23:14:56.010Z,59.51
2018-04-08T23:17:24.162Z,59.53
2018-04-08T23:19:52.295Z,59.62
2018-04-08T23:22:20.462Z,58.88
2018-04-08T23:24:48.580Z,58.99
2018-04-08T23:27:16.698Z,58.77
2018-04-08T23:29:44.821Z,58.93
2018-04-08T23:32:12.971Z,58.85
2018-04-08T23:34:41.068Z,58.94
2018-04-08T23:37:09.191Z,58.52
2018-04-08T23:39:37.338Z,58.83
2018-04-08T23:42:05.475Z,59.39
2018-04-08T23:44:33.605Z,59.47
2018-04-08T23:47:01.766Z,59.15
2018-04-08T23:49:29.905Z,59.30
2018-04-08T23:51:58.052Z,59.52
2018-04-08T23:54:26.214Z,59.43
2018-04-08T23:56:54.350Z,59.81
2018-04-08T23:59:22.508Z,59.68
